createdAt,value
2023-04-28T00:00:55.679Z,136.69
2023-04-28T00:01:55.678Z,136.97
2023-04-28T00:02:55.742Z,136.80
2023-04-28T00:03:55.853Z,135.59
2023-04-28T00:04:55.776Z,138.66
2023-04-28T00:05:55.758Z,138.73
2023-04-28T00:06:55.711Z,136.32
2023-04-28T00:07:55.737Z,137.15
2023-04-28T00:08:55.746Z,136.38
2023-04-28T00:09:55.751Z,135.56
2023-04-28T00:10:55.781Z,135.39
2023-04-28T00:11:55.755Z,134.78
2023-04-28T00:12:55.762Z,138.78
2023-04-28T00:13:55.755Z,136.16
2023-04-28T00:14:55.778Z,135.40
2023-04-28T00:15:55.842Z,136.16
2023-04-28T00:16:55.904Z,136.89
2023-04-28T00:17:55.907Z,137.56
2023-04-28T00:18:55.803Z,135.95
2023-04-28T00:19:56.507Z,135.35
2023-04-28T00:20:55.818Z,134.57
2023-04-28T00:21:55.814Z,135.53
2023-04-28T00:22:55.822Z,134.58
2023-04-28T00:23:55.822Z,135.98
2023-04-28T00:24:55.841Z,134.70
2023-04-28T00:25:55.850Z,135.17
2023-04-28T00:26:55.837Z,135.04
2023-04-28T00:27:55.847Z,135.59
2023-04-28T00:28:55.833Z,134.55
2023-04-28T00:29:55.885Z,136.54
2023-04-28T00:30:55.873Z,135.06
2023-04-28T00:31:55.956Z,135.06
2023-04-28T00:32:55.930Z,135.18
2023-04-28T00:33:55.866Z,133.57
2023-04-28T00:34:55.877Z,134.70
2023-04-28T00:35:55.855Z,134.67
2023-04-28T00:36:55.951Z,135.67
2023-04-28T00:37:55.853Z,136.28
2023-04-28T00:38:55.841Z,134.40
2023-04-28T00:39:55.848Z,134.12
2023-04-28T00:40:55.822Z,136.32
2023-04-28T00:41:55.821Z,135.73
2023-04-28T00:42:55.940Z,134.02
2023-04-28T00:43:55.832Z,135.88
2023-04-28T00:44:55.848Z,132.59
2023-04-28T00:45:55.937Z,132.76
2023-04-28T00:46:55.852Z,133.66
2023-04-28T00:47:55.895Z,131.46
2023-04-28T00:48:55.864Z,132.78
2023-04-28T00:49:55.874Z,132.18
2023-04-28T00:50:55.857Z,134.01
2023-04-28T00:51:55.856Z,134.24
2023-04-28T00:52:55.868Z,134.52
2023-04-28T00:53:55.870Z,132.67
2023-04-28T00:54:55.898Z,133.31
2023-04-28T00:55:55.897Z,132.60
2023-04-28T00:56:55.906Z,134.96
2023-04-28T00:57:56.067Z,134.60
2023-04-28T00:58:55.918Z,134.35
2023-04-28T00:59:55.918Z,133.33
2023-04-28T01:00:55.973Z,133.70
2023-04-28T01:01:55.935Z,133.04
2023-04-28T01:02:56.095Z,133.54
2023-04-28T01:03:56.099Z,131.68
2023-04-28T01:04:55.946Z,132.25
2023-04-28T01:05:55.957Z,132.87
2023-04-28T01:06:55.979Z,132.70
2023-04-28T01:07:55.988Z,133.02
2023-04-28T01:08:56.012Z,132.18
2023-04-28T01:09:56.007Z,132.62
2023-04-28T01:10:56.017Z,131.70
2023-04-28T01:11:56.042Z,131.28
2023-04-28T01:12:56.037Z,130.44
2023-04-28T01:13:56.040Z,131.55
2023-04-28T01:14:56.050Z,132.83
2023-04-28T01:15:56.078Z,131.68
2023-04-28T01:16:56.115Z,129.81
2023-04-28T01:17:56.129Z,130.21
2023-04-28T01:18:56.071Z,128.55
2023-04-28T01:19:56.085Z,128.60
2023-04-28T01:20:56.122Z,127.94
2023-04-28T01:21:56.108Z,128.64
2023-04-28T01:22:56.119Z,128.94
2023-04-28T01:23:56.122Z,128.72
2023-04-28T01:24:56.130Z,126.93
2023-04-28T01:25:56.136Z,126.72
2023-04-28T01:26:56.156Z,126.58
2023-04-28T01:27:56.128Z,128.38
2023-04-28T01:28:56.137Z,127.57
2023-04-28T01:29:56.135Z,129.45
2023-04-28T01:30:56.151Z,126.75
2023-04-28T01:31:56.222Z,130.54
2023-04-28T01:32:56.202Z,127.48
2023-04-28T01:33:56.193Z,127.40
2023-04-28T01:34:56.233Z,128.47
2023-04-28T01:35:56.245Z,127.71
2023-04-28T01:36:56.243Z,127.10
2023-04-28T01:37:56.251Z,129.87
2023-04-28T01:38:56.264Z,127.49
2023-04-28T01:39:56.260Z,127.87
2023-04-28T01:40:56.259Z,126.39
2023-04-28T01:41:56.265Z,126.94
2023-04-28T01:42:56.309Z,127.09
2023-04-28T01:43:56.331Z,129.71
2023-04-28T01:44:56.340Z,126.93
2023-04-28T01:45:56.398Z,130.01
2023-04-28T01:46:56.396Z,127.34
2023-04-28T01:47:56.419Z,128.46
2023-04-28T01:48:56.407Z,128.33
2023-04-28T01:49:56.422Z,127.91
2023-04-28T01:50:56.419Z,130.51
2023-04-28T01:51:56.421Z,129.68
2023-04-28T01:52:56.416Z,127.49
2023-04-28T01:53:56.433Z,129.36
2023-04-28T01:54:56.434Z,127.33
2023-04-28T01:55:56.452Z,128.71
2023-04-28T01:56:56.467Z,128.31
2023-04-28T01:57:56.496Z,126.48
2023-04-28T01:58:56.479Z,126.52
2023-04-28T01:59:56.473Z,125.16
2023-04-28T02:00:56.478Z,125.44
2023-04-28T02:01:56.524Z,126.78
2023-04-28T02:02:56.624Z,126.15
2023-04-28T02:03:56.740Z,126.47
2023-04-28T02:04:56.553Z,125.33
2023-04-28T02:05:56.542Z,125.18
2023-04-28T02:06:56.536Z,124.78
2023-04-28T02:07:56.716Z,124.49
2023-04-28T02:08:56.580Z,122.97
2023-04-28T02:09:56.587Z,125.35
2023-04-28T02:10:56.603Z,122.98
2023-04-28T02:11:56.605Z,123.75
2023-04-28T02:12:56.811Z,125.43
2023-04-28T02:13:56.619Z,124.55
2023-04-28T02:14:56.644Z,125.13
2023-04-28T02:15:56.723Z,125.24
2023-04-28T02:16:56.708Z,125.55
2023-04-28T02:17:57.631Z,124.92
2023-04-28T02:18:56.675Z,125.58
2023-04-28T02:19:56.701Z,125.45
2023-04-28T02:20:56.690Z,124.52
2023-04-28T02:21:56.695Z,124.19
2023-04-28T02:22:56.695Z,125.57
2023-04-28T02:23:56.707Z,124.83
2023-04-28T02:24:56.710Z,124.11
2023-04-28T02:25:56.723Z,124.58
2023-04-28T02:26:56.723Z,123.19
2023-04-28T02:27:56.727Z,122.20
2023-04-28T02:28:56.738Z,121.18
2023-04-28T02:29:56.748Z,121.91
2023-04-28T02:30:56.745Z,120.65
2023-04-28T02:31:56.805Z,122.19
2023-04-28T02:32:56.824Z,121.71
2023-04-28T02:33:56.769Z,121.17
2023-04-28T02:34:56.782Z,120.55
2023-04-28T02:35:56.771Z,120.41
2023-04-28T02:36:56.768Z,121.89
2023-04-28T02:37:56.792Z,121.57
2023-04-28T02:38:56.781Z,121.57
2023-04-28T02:39:56.779Z,121.91
2023-04-28T02:40:56.772Z,122.51
2023-04-28T02:41:56.858Z,119.32
2023-04-28T02:42:56.801Z,120.99
2023-04-28T02:43:56.802Z,121.82
2023-04-28T02:44:56.814Z,120.23
2023-04-28T02:45:56.835Z,120.16
2023-04-28T02:46:56.932Z,120.81
2023-04-28T02:47:56.918Z,121.61
2023-04-28T02:48:56.861Z,121.50
2023-04-28T02:49:56.878Z,119.04
2023-04-28T02:50:56.903Z,120.05
2023-04-28T02:51:56.910Z,120.52
2023-04-28T02:52:56.936Z,120.62
2023-04-28T02:53:56.942Z,120.38
2023-04-28T02:54:56.981Z,123.46
2023-04-28T02:55:56.983Z,122.09
2023-04-28T02:56:57.137Z,122.05
2023-04-28T02:57:57.038Z,120.42
2023-04-28T02:58:56.991Z,119.93
2023-04-28T02:59:57.186Z,120.11
2023-04-28T03:00:57.047Z,121.03
2023-04-28T03:01:57.028Z,121.31
2023-04-28T03:02:57.090Z,119.86
2023-04-28T03:03:57.248Z,119.11
2023-04-28T03:04:57.094Z,119.51
2023-04-28T03:05:57.096Z,117.94
2023-04-28T03:06:57.069Z,119.98
2023-04-28T03:07:57.063Z,121.54
2023-04-28T03:08:57.072Z,119.23
2023-04-28T03:09:57.070Z,118.63
2023-04-28T03:10:57.094Z,119.21
2023-04-28T03:11:57.093Z,118.61
2023-04-28T03:12:57.108Z,119.00
2023-04-28T03:13:57.114Z,120.45
2023-04-28T03:14:57.121Z,119.38
2023-04-28T03:15:57.194Z,119.12
2023-04-28T03:16:57.153Z,120.39
2023-04-28T03:17:57.220Z,120.65
2023-04-28T03:18:57.171Z,118.99
2023-04-28T03:19:57.163Z,119.45
2023-04-28T03:20:57.173Z,118.39
2023-04-28T03:21:57.175Z,120.47
2023-04-28T03:22:57.187Z,121.16
2023-04-28T03:23:57.200Z,116.97
2023-04-28T03:24:57.200Z,120.11
2023-04-28T03:25:57.226Z,117.02
2023-04-28T03:26:57.229Z,120.44
2023-04-28T03:27:57.217Z,118.75
2023-04-28T03:28:57.248Z,118.61
2023-04-28T03:29:57.275Z,119.66
2023-04-28T03:30:57.287Z,120.89
2023-04-28T03:31:57.366Z,117.51
2023-04-28T03:32:57.381Z,117.80
2023-04-28T03:33:57.354Z,116.62
2023-04-28T03:34:57.369Z,117.18
2023-04-28T03:35:57.383Z,116.99
2023-04-28T03:36:57.368Z,119.36
2023-04-28T03:37:57.372Z,119.60
2023-04-28T03:38:57.403Z,118.39
2023-04-28T03:39:57.411Z,118.75
2023-04-28T03:40:57.426Z,117.69
2023-04-28T03:41:57.440Z,116.43
2023-04-28T03:42:57.456Z,115.81
2023-04-28T03:43:57.446Z,117.49
2023-04-28T03:44:57.467Z,116.32
2023-04-28T03:45:57.499Z,115.87
2023-04-28T03:46:57.476Z,115.59
2023-04-28T03:47:57.503Z,115.49
2023-04-28T03:48:57.498Z,115.65
2023-04-28T03:49:57.520Z,116.61
2023-04-28T03:50:57.508Z,113.37
2023-04-28T03:51:57.537Z,115.04
2023-04-28T03:52:57.553Z,116.01
2023-04-28T03:53:57.583Z,113.49
2023-04-28T03:54:57.600Z,113.58
2023-04-28T03:55:57.583Z,111.42
2023-04-28T03:56:57.625Z,113.73
2023-04-28T03:57:57.624Z,113.67
2023-04-28T03:58:57.647Z,111.00
2023-04-28T03:59:57.638Z,112.86
2023-04-28T04:00:57.662Z,111.95
2023-04-28T04:01:57.663Z,113.96
2023-04-28T04:02:57.981Z,113.97
2023-04-28T04:03:57.851Z,110.46
2023-04-28T04:04:57.817Z,113.71
2023-04-28T04:05:57.661Z,112.65
2023-04-28T04:06:57.686Z,113.61
2023-04-28T04:07:57.710Z,113.18
2023-04-28T04:08:57.735Z,113.87
2023-04-28T04:09:57.731Z,111.64
2023-04-28T04:10:57.741Z,112.60
2023-04-28T04:11:57.765Z,111.84
2023-04-28T04:12:57.747Z,113.68
2023-04-28T04:13:57.914Z,112.17
2023-04-28T04:14:57.800Z,111.52
2023-04-28T04:15:57.898Z,111.06
2023-04-28T04:16:57.868Z,111.69
2023-04-28T04:17:57.894Z,112.52
2023-04-28T04:18:57.880Z,112.44
2023-04-28T04:19:57.893Z,112.90
2023-04-28T04:20:57.929Z,113.43
2023-04-28T04:21:57.963Z,111.80
2023-04-28T04:22:57.995Z,112.30
2023-04-28T04:23:58.012Z,111.19
2023-04-28T04:24:58.116Z,111.75
2023-04-28T04:25:58.088Z,113.83
2023-04-28T04:26:58.114Z,111.63
2023-04-28T04:27:58.110Z,111.91
2023-04-28T04:28:58.268Z,109.83
2023-04-28T04:29:58.124Z,111.88
2023-04-28T04:30:58.164Z,111.98
2023-04-28T04:31:58.168Z,111.42
2023-04-28T04:32:58.203Z,111.15
2023-04-28T04:33:58.253Z,112.77
2023-04-28T04:34:58.204Z,111.51
2023-04-28T04:35:58.247Z,111.87
2023-04-28T04:36:58.280Z,110.12
2023-04-28T04:37:58.264Z,110.66
2023-04-28T04:38:58.280Z,110.37
2023-04-28T04:39:58.299Z,111.15
2023-04-28T04:40:58.308Z,112.40
2023-04-28T04:41:58.343Z,111.47
2023-04-28T04:42:58.355Z,110.53
2023-04-28T04:43:58.364Z,114.24
2023-04-28T04:44:58.367Z,111.80
2023-04-28T04:45:58.432Z,111.32
2023-04-28T04:46:58.442Z,111.91
2023-04-28T04:47:58.495Z,111.43
2023-04-28T04:48:58.410Z,112.52
2023-04-28T04:49:58.428Z,113.35
2023-04-28T04:50:58.467Z,112.36
2023-04-28T04:51:58.462Z,110.37
2023-04-28T04:52:58.490Z,111.99
2023-04-28T04:53:58.488Z,113.03
2023-04-28T04:54:58.485Z,111.73
2023-04-28T04:55:58.496Z,110.81
2023-04-28T04:56:58.497Z,112.29
2023-04-28T04:57:58.490Z,112.50
2023-04-28T04:58:58.487Z,110.01
2023-04-28T04:59:58.492Z,110.95
2023-04-28T05:00:58.504Z,111.16
2023-04-28T05:01:58.549Z,110.09
2023-04-28T05:02:58.614Z,112.49
2023-04-28T05:03:58.669Z,110.22
2023-04-28T05:05:08.251Z,111.14
2023-04-28T05:05:59.521Z,111.40
2023-04-28T05:06:58.507Z,111.64
2023-04-28T05:07:58.474Z,111.92
2023-04-28T05:08:58.457Z,111.97
2023-04-28T05:09:58.441Z,113.29
2023-04-28T05:10:58.425Z,111.16
2023-04-28T05:11:58.396Z,111.42
2023-04-28T05:12:58.380Z,110.66
2023-04-28T05:13:58.355Z,111.74
2023-04-28T05:14:58.394Z,112.80
2023-04-28T05:15:58.523Z,111.10
2023-04-28T05:16:58.524Z,110.68
2023-04-28T05:17:58.638Z,112.51
2023-04-28T05:18:58.572Z,108.78
2023-04-28T05:19:58.611Z,112.16
2023-04-28T05:20:58.670Z,113.87
2023-04-28T05:21:59.653Z,114.16
2023-04-28T05:22:58.623Z,114.92
2023-04-28T05:23:59.248Z,113.51
2023-04-28T05:24:58.608Z,100.55
2023-04-28T05:25:58.567Z,93.87
2023-04-28T05:26:58.555Z,91.10
2023-04-28T05:27:58.521Z,61.28
2023-04-28T05:28:58.498Z,40.35
2023-04-28T05:29:58.495Z,33.72
2023-04-28T05:30:58.500Z,40.03
2023-04-28T05:31:58.560Z,41.82
2023-04-28T05:32:58.571Z,45.68
2023-04-28T05:33:58.579Z,50.43
2023-04-28T05:34:58.619Z,47.36
2023-04-28T05:35:58.627Z,48.84
2023-04-28T05:36:58.653Z,49.96
2023-04-28T05:37:59.001Z,50.35
2023-04-28T05:38:58.693Z,52.86
2023-04-28T05:39:58.694Z,55.24
2023-04-28T05:40:59.544Z,56.46
2023-04-28T05:41:58.739Z,58.58
2023-04-28T05:42:58.678Z,60.93
2023-04-28T05:43:58.671Z,60.96
2023-04-28T05:44:58.689Z,62.52
2023-04-28T05:45:58.716Z,63.29
2023-04-28T05:46:58.736Z,65.26
2023-04-28T05:47:58.732Z,68.65
2023-04-28T05:48:58.732Z,67.38
2023-04-28T05:49:58.734Z,66.84
2023-04-28T05:50:58.714Z,68.02
2023-04-28T05:51:58.721Z,71.15
2023-04-28T05:52:58.708Z,70.13
2023-04-28T05:53:58.717Z,73.57
2023-04-28T05:54:58.698Z,71.03
2023-04-28T05:55:58.703Z,74.91
2023-04-28T05:57:00.834Z,74.39
2023-04-28T05:57:58.702Z,75.71
2023-04-28T05:58:58.678Z,77.26
2023-04-28T05:59:58.665Z,77.43
2023-04-28T06:00:58.635Z,77.16
2023-04-28T06:01:58.692Z,78.92
2023-04-28T06:02:58.818Z,79.73
2023-04-28T06:03:58.780Z,79.38
2023-04-28T06:04:58.928Z,79.39
2023-04-28T06:05:58.655Z,79.63
2023-04-28T06:06:58.540Z,80.95
2023-04-28T06:07:58.607Z,83.01
2023-04-28T06:08:58.515Z,81.86
2023-04-28T06:09:58.485Z,85.02
2023-04-28T06:10:58.449Z,86.01
2023-04-28T06:11:59.512Z,82.20
2023-04-28T06:12:58.420Z,88.35
2023-04-28T06:13:58.403Z,85.22
2023-04-28T06:14:58.396Z,86.64
2023-04-28T06:15:58.445Z,86.65
2023-04-28T06:16:58.361Z,86.20
2023-04-28T06:17:58.396Z,85.46
2023-04-28T06:18:58.323Z,88.28
2023-04-28T06:19:58.312Z,89.05
2023-04-28T06:20:58.281Z,86.58
2023-04-28T06:21:58.281Z,90.29
2023-04-28T06:22:58.266Z,93.36
2023-04-28T06:23:58.257Z,97.44
2023-04-28T06:24:58.231Z,111.16
2023-04-28T06:25:58.214Z,115.13
2023-04-28T06:26:58.183Z,153.98
2023-04-28T06:27:58.216Z,163.05
2023-04-28T06:28:58.160Z,169.82
2023-04-28T06:29:58.133Z,170.63
2023-04-28T06:30:58.144Z,181.16
2023-04-28T06:31:58.093Z,189.48
2023-04-28T06:32:58.087Z,198.31
2023-04-28T06:33:58.038Z,208.17
2023-04-28T06:34:58.721Z,215.70
2023-04-28T06:35:58.012Z,216.23
2023-04-28T06:36:57.972Z,218.90
2023-04-28T06:37:57.931Z,225.37
2023-04-28T06:38:57.900Z,237.73
2023-04-28T06:39:57.869Z,257.08
2023-04-28T06:40:57.843Z,250.00
2023-04-28T06:41:57.805Z,250.00
2023-04-28T06:42:57.780Z,250.00
2023-04-28T06:43:58.567Z,249.90
2023-04-28T06:44:57.717Z,250.00
2023-04-28T06:45:57.715Z,250.00
2023-04-28T06:46:57.702Z,250.00
2023-04-28T06:47:57.685Z,249.12
2023-04-28T06:48:57.639Z,249.90
2023-04-28T06:49:57.653Z,250.00
2023-04-28T06:50:57.634Z,250.12
2023-04-28T06:51:57.654Z,250.00
2023-04-28T06:52:57.636Z,250.00
2023-04-28T06:53:57.649Z,250.00
2023-04-28T06:54:57.668Z,250.00
2023-04-28T06:55:57.629Z,250.00
2023-04-28T06:56:57.634Z,249.27
2023-04-28T06:57:57.640Z,250.00
2023-04-28T06:58:57.633Z,250.00
2023-04-28T06:59:57.622Z,249.33
2023-04-28T07:00:57.620Z,249.72
2023-04-28T07:01:57.703Z,249.60
2023-04-28T07:02:57.739Z,249.28
2023-04-28T07:03:57.815Z,250.00
2023-04-28T07:04:57.592Z,250.00
2023-04-28T07:05:57.574Z,249.63
2023-04-28T07:06:57.575Z,250.00
2023-04-28T07:07:57.546Z,249.46
2023-04-28T07:08:57.542Z,249.96
2023-04-28T07:09:57.526Z,250.00
2023-04-28T07:10:57.516Z,249.79
2023-04-28T07:11:57.498Z,250.00
2023-04-28T07:12:57.482Z,249.58
2023-04-28T07:13:57.473Z,247.69
2023-04-28T07:14:57.462Z,249.87
2023-04-28T07:15:57.523Z,249.72
2023-04-28T07:16:57.452Z,250.00
2023-04-28T07:17:57.471Z,250.00
2023-04-28T07:18:57.418Z,246.98
2023-04-28T07:19:57.416Z,246.87
2023-04-28T07:20:57.405Z,245.06
2023-04-28T07:21:57.398Z,248.21
2023-04-28T07:22:57.403Z,248.77
2023-04-28T07:23:58.182Z,247.34
2023-04-28T07:24:57.377Z,248.57
2023-04-28T07:25:57.354Z,249.82
2023-04-28T07:26:57.358Z,250.00
2023-04-28T07:27:58.255Z,249.49
2023-04-28T07:28:57.400Z,249.71
2023-04-28T07:29:57.332Z,249.33
2023-04-28T07:30:58.307Z,249.63
2023-04-28T07:31:57.354Z,249.41
2023-04-28T07:32:57.392Z,249.51
2023-04-28T07:33:57.292Z,249.77
2023-04-28T07:34:58.318Z,249.87
2023-04-28T07:35:57.247Z,250.06
2023-04-28T07:36:58.386Z,250.40
2023-04-28T07:37:57.200Z,250.70
2023-04-28T07:38:57.170Z,251.95
2023-04-28T07:39:57.150Z,249.25
2023-04-28T07:40:57.175Z,248.96
2023-04-28T07:41:57.103Z,249.58
2023-04-28T07:42:58.684Z,249.72
2023-04-28T07:43:57.069Z,249.93
2023-04-28T07:44:57.075Z,250.28
2023-04-28T07:45:57.040Z,250.37
2023-04-28T07:46:56.989Z,253.81
2023-04-28T07:47:56.985Z,247.97
2023-04-28T07:48:56.907Z,249.17
2023-04-28T07:49:56.883Z,249.89
2023-04-28T07:50:56.851Z,248.59
2023-04-28T07:51:56.823Z,249.18
2023-04-28T07:52:56.963Z,249.19
2023-04-28T07:53:56.777Z,249.93
2023-04-28T07:54:57.606Z,249.78
2023-04-28T07:55:56.710Z,248.79
2023-04-28T07:56:56.699Z,249.42
2023-04-28T07:57:56.676Z,247.59
2023-04-28T07:58:57.593Z,249.80
2023-04-28T07:59:56.613Z,249.81
2023-04-28T08:00:56.576Z,249.72
2023-04-28T08:01:56.587Z,247.76
2023-04-28T08:02:57.284Z,247.89
2023-04-28T08:03:57.984Z,247.99
2023-04-28T08:04:56.908Z,248.64
2023-04-28T08:05:56.650Z,249.33
2023-04-28T08:06:56.531Z,250.58
2023-04-28T08:07:56.523Z,252.48
2023-04-28T08:08:56.496Z,249.43
2023-04-28T08:09:56.500Z,248.45
2023-04-28T08:10:56.501Z,248.40
2023-04-28T08:11:56.477Z,248.82
2023-04-28T08:12:56.480Z,248.78
2023-04-28T08:13:57.101Z,246.69
2023-04-28T08:14:56.426Z,246.76
2023-04-28T08:15:56.455Z,246.86
2023-04-28T08:16:56.417Z,244.10
2023-04-28T08:17:56.450Z,246.82
2023-04-28T08:18:56.440Z,232.26
2023-04-28T08:19:56.368Z,214.94
2023-04-28T08:20:56.342Z,199.17
2023-04-28T08:21:56.402Z,186.85
2023-04-28T08:22:56.328Z,175.28
2023-04-28T08:23:56.283Z,162.50
2023-04-28T08:24:56.258Z,151.76
2023-04-28T08:25:56.243Z,136.97
2023-04-28T08:26:56.220Z,135.54
2023-04-28T08:27:57.234Z,142.75
2023-04-28T08:28:56.204Z,146.17
2023-04-28T08:29:56.174Z,147.85
2023-04-28T08:30:56.189Z,150.42
2023-04-28T08:31:56.123Z,154.43
2023-04-28T08:32:56.194Z,160.43
2023-04-28T08:33:56.148Z,164.69
2023-04-28T08:34:56.141Z,169.45
2023-04-28T08:35:56.154Z,175.57
2023-04-28T08:36:56.140Z,179.80
2023-04-28T08:37:56.137Z,182.21
2023-04-28T08:38:56.129Z,184.70
2023-04-28T08:39:56.099Z,187.23
2023-04-28T08:40:56.082Z,189.85
2023-04-28T08:41:56.078Z,189.01
2023-04-28T08:42:56.081Z,193.30
2023-04-28T08:43:56.045Z,192.48
2023-04-28T08:44:56.085Z,197.15
2023-04-28T08:45:56.031Z,196.92
2023-04-28T08:46:56.150Z,196.20
2023-04-28T08:47:58.013Z,198.02
2023-04-28T08:48:56.070Z,200.83
2023-04-28T08:49:56.108Z,200.17
2023-04-28T08:50:56.347Z,203.61
2023-04-28T08:51:56.099Z,203.76
2023-04-28T08:52:56.051Z,204.02
2023-04-28T08:54:55.973Z,206.82
2023-04-28T08:55:55.959Z,206.77
2023-04-28T08:56:55.892Z,203.51
2023-04-28T08:57:55.874Z,200.11
2023-04-28T08:58:55.849Z,199.98
2023-04-28T08:59:56.615Z,203.09
2023-04-28T09:00:55.928Z,203.72
2023-04-28T09:01:55.803Z,203.47
2023-04-28T09:02:55.784Z,203.01
2023-04-28T09:03:55.752Z,204.98
2023-04-28T09:04:55.817Z,206.13
2023-04-28T09:05:55.598Z,209.63
2023-04-28T09:06:55.530Z,211.47
2023-04-28T09:07:55.581Z,210.84
2023-04-28T09:08:55.488Z,212.03
2023-04-28T09:09:55.573Z,214.28
2023-04-28T09:10:55.378Z,214.97
2023-04-28T09:11:56.212Z,215.16
2023-04-28T09:12:55.317Z,219.12
2023-04-28T09:13:56.701Z,218.25
2023-04-28T09:14:55.238Z,219.69
2023-04-28T09:15:55.386Z,223.47
2023-04-28T09:16:55.373Z,221.57
2023-04-28T09:17:55.154Z,216.49
2023-04-28T09:18:55.072Z,220.94
2023-04-28T09:19:55.036Z,222.54
2023-04-28T09:20:55.012Z,222.75
2023-04-28T09:21:54.993Z,220.27
2023-04-28T09:22:55.767Z,219.21
2023-04-28T09:23:54.896Z,217.52
2023-04-28T09:24:56.236Z,213.11
2023-04-28T09:25:55.628Z,211.71
2023-04-28T09:26:55.799Z,207.16
2023-04-28T09:27:54.775Z,205.31
2023-04-28T09:28:54.776Z,203.60
2023-04-28T09:29:54.751Z,199.32
2023-04-28T09:30:54.723Z,196.84
2023-04-28T09:31:54.762Z,194.35
2023-04-28T09:32:54.694Z,189.87
2023-04-28T09:33:54.657Z,188.87
2023-04-28T09:34:54.652Z,188.39
2023-04-28T09:35:54.669Z,186.14
2023-04-28T09:36:54.674Z,183.00
2023-04-28T09:37:54.611Z,180.50
2023-04-28T09:38:55.197Z,178.81
2023-04-28T09:39:54.564Z,177.37
2023-04-28T09:40:54.561Z,174.49
2023-04-28T09:41:54.533Z,173.73
2023-04-28T09:42:54.531Z,169.49
2023-04-28T09:43:54.506Z,169.42
2023-04-28T09:44:54.485Z,166.84
2023-04-28T09:45:54.554Z,163.70
2023-04-28T09:46:54.464Z,162.21
2023-04-28T09:47:54.528Z,161.40
2023-04-28T09:48:54.444Z,160.50
2023-04-28T09:49:54.437Z,160.30
2023-04-28T09:50:54.464Z,158.76
2023-04-28T09:51:54.444Z,157.36
2023-04-28T09:52:54.443Z,155.78
2023-04-28T09:53:55.186Z,154.15
2023-04-28T09:54:54.460Z,152.74
2023-04-28T09:55:54.466Z,151.88
2023-04-28T09:56:54.464Z,149.45
2023-04-28T09:57:54.469Z,149.23
2023-04-28T09:58:54.475Z,147.59
2023-04-28T09:59:54.498Z,146.21
2023-04-28T10:00:54.776Z,144.93
2023-04-28T10:01:54.596Z,145.37
2023-04-28T10:02:54.603Z,145.21
2023-04-28T10:03:54.671Z,144.13
2023-04-28T10:04:54.824Z,142.14
2023-04-28T10:05:54.544Z,141.88
2023-04-28T10:06:54.558Z,139.53
2023-04-28T10:07:54.575Z,139.43
2023-04-28T10:08:54.584Z,138.52
2023-04-28T10:09:54.615Z,138.41
2023-04-28T10:10:54.736Z,137.65
2023-04-28T10:11:54.613Z,137.83
2023-04-28T10:12:54.648Z,138.15
2023-04-28T10:13:54.678Z,139.84
2023-04-28T10:14:54.684Z,130.36
2023-04-28T10:15:54.789Z,116.53
2023-04-28T10:16:54.770Z,105.76
2023-04-28T10:17:54.811Z,100.28
2023-04-28T10:18:55.659Z,103.54
2023-04-28T10:19:54.821Z,114.87
2023-04-28T10:20:54.812Z,123.89
2023-04-28T10:21:54.839Z,123.86
2023-04-28T10:22:55.229Z,128.18
2023-04-28T10:23:54.880Z,130.94
2023-04-28T10:24:56.950Z,135.35
2023-04-28T10:25:54.934Z,140.29
2023-04-28T10:26:54.948Z,145.04
2023-04-28T10:27:54.994Z,150.19
2023-04-28T10:28:55.015Z,155.77
2023-04-28T10:29:55.006Z,162.38
2023-04-28T10:30:55.081Z,170.48
2023-04-28T10:31:55.008Z,178.86
2023-04-28T10:32:55.047Z,184.07
2023-04-28T10:33:55.029Z,192.12
2023-04-28T10:34:54.988Z,197.87
2023-04-28T10:35:54.954Z,204.63
2023-04-28T10:36:55.014Z,207.67
2023-04-28T10:37:54.918Z,214.83
2023-04-28T10:38:54.909Z,220.80
2023-04-28T10:39:54.888Z,226.04
2023-04-28T10:40:54.931Z,231.60
2023-04-28T10:41:54.902Z,237.64
2023-04-28T10:42:54.882Z,239.33
2023-04-28T10:43:54.887Z,243.56
2023-04-28T10:44:55.746Z,248.82
2023-04-28T10:45:57.570Z,249.26
2023-04-28T10:46:54.914Z,249.23
2023-04-28T10:47:54.866Z,250.28
2023-04-28T10:48:54.801Z,250.00
2023-04-28T10:49:54.749Z,249.92
2023-04-28T10:50:54.712Z,250.00
2023-04-28T10:51:54.677Z,249.44
2023-04-28T10:52:54.638Z,250.00
2023-04-28T10:53:54.611Z,250.00
2023-04-28T10:54:54.568Z,249.38
2023-04-28T10:55:54.607Z,250.83
2023-04-28T10:56:54.492Z,250.00
2023-04-28T10:57:54.458Z,247.45
2023-04-28T10:58:54.428Z,249.44
2023-04-28T10:59:54.407Z,250.04
2023-04-28T11:00:54.353Z,248.86
2023-04-28T11:01:54.325Z,248.13
2023-04-28T11:02:54.470Z,246.98
2023-04-28T11:03:54.447Z,249.14
2023-04-28T11:04:54.504Z,250.00
2023-04-28T11:05:54.153Z,249.32
2023-04-28T11:06:54.126Z,245.40
2023-04-28T11:07:54.092Z,243.97
2023-04-28T11:08:54.055Z,244.99
2023-04-28T11:09:54.016Z,249.24
2023-04-28T11:10:53.985Z,249.83
2023-04-28T11:11:53.949Z,250.00
2023-04-28T11:12:53.911Z,249.56
2023-04-28T11:13:53.868Z,248.77
2023-04-28T11:14:53.837Z,248.26
2023-04-28T11:15:53.807Z,247.89
2023-04-28T11:16:54.059Z,247.43
2023-04-28T11:17:53.762Z,248.18
2023-04-28T11:18:55.409Z,248.17
2023-04-28T11:19:53.640Z,249.50
2023-04-28T11:20:53.613Z,247.50
2023-04-28T11:21:53.603Z,248.65
2023-04-28T11:22:53.638Z,249.30
2023-04-28T11:23:53.638Z,248.27
2023-04-28T11:24:54.038Z,249.86
2023-04-28T11:25:53.643Z,247.95
2023-04-28T11:26:53.702Z,248.05
2023-04-28T11:27:53.681Z,246.93
2023-04-28T11:28:53.693Z,250.00
2023-04-28T11:29:53.681Z,249.51
2023-04-28T11:30:54.229Z,248.21
2023-04-28T11:31:53.668Z,249.16
2023-04-28T11:32:53.648Z,247.58
2023-04-28T11:33:53.575Z,246.87
2023-04-28T11:34:53.562Z,245.95
2023-04-28T11:35:53.554Z,245.51
2023-04-28T11:36:54.779Z,246.79
2023-04-28T11:37:53.545Z,246.07
2023-04-28T11:38:53.516Z,247.92
2023-04-28T11:39:53.464Z,246.28
2023-04-28T11:40:53.455Z,245.55
2023-04-28T11:41:53.422Z,245.17
2023-04-28T11:42:53.399Z,245.68
2023-04-28T11:43:53.444Z,245.86
2023-04-28T11:44:53.380Z,244.19
2023-04-28T11:45:53.385Z,243.54
2023-04-28T11:46:53.337Z,243.55
2023-04-28T11:47:53.396Z,241.97
2023-04-28T11:48:53.269Z,239.95
2023-04-28T11:49:53.265Z,236.97
2023-04-28T11:50:53.236Z,226.11
2023-04-28T11:51:53.222Z,221.06
2023-04-28T11:52:54.112Z,217.41
2023-04-28T11:53:53.186Z,211.05
2023-04-28T11:54:53.258Z,208.65
2023-04-28T11:55:53.153Z,211.51
2023-04-28T11:56:53.136Z,215.13
2023-04-28T11:57:53.275Z,216.57
2023-04-28T11:58:54.228Z,216.62
2023-04-28T11:59:53.093Z,213.88
2023-04-28T12:00:53.047Z,205.46
2023-04-28T12:01:53.042Z,199.37
2023-04-28T12:02:53.057Z,196.23
2023-04-28T12:03:53.041Z,193.73
2023-04-28T12:04:52.947Z,192.47
2023-04-28T12:05:52.945Z,191.15
2023-04-28T12:06:52.891Z,193.96
2023-04-28T12:07:52.863Z,195.19
2023-04-28T12:08:52.980Z,197.49
2023-04-28T12:09:52.807Z,200.59
2023-04-28T12:10:52.757Z,201.80
2023-04-28T12:11:52.728Z,203.73
2023-04-28T12:12:53.484Z,205.33
2023-04-28T12:13:52.684Z,206.11
2023-04-28T12:14:52.638Z,206.66
2023-04-28T12:15:52.702Z,205.99
2023-04-28T12:16:52.640Z,205.29
2023-04-28T12:17:52.591Z,205.72
2023-04-28T12:18:52.538Z,204.99
2023-04-28T12:19:52.517Z,204.52
2023-04-28T12:20:52.494Z,204.68
2023-04-28T12:21:52.488Z,204.59
2023-04-28T12:22:52.441Z,204.04
2023-04-28T12:23:52.412Z,204.09
2023-04-28T12:24:52.388Z,204.14
2023-04-28T12:25:52.365Z,203.79
2023-04-28T12:26:52.329Z,202.74
2023-04-28T12:27:52.306Z,202.78
2023-04-28T12:28:52.269Z,202.34
2023-04-28T12:29:52.239Z,202.25
2023-04-28T12:30:52.207Z,202.48
2023-04-28T12:31:52.253Z,201.08